sensor_id;sensor_type;location;lat;lon;timestamp;pressure;altitude;pressure_sealevel;temperature;humidity
49979;BME280;35869;50.990;6.962;2023-05-23T00:03:09;101383.34;;;16.91;90.33
49979;BME280;35869;50.990;6.962;2023-05-23T00:08:10;101375.25;;;16.79;91.13
49979;BME280;35869;50.990;6.962;2023-05-23T00:13:10;101373.47;;;16.80;88.78
49979;BME280;35869;50.990;6.962;2023-05-23T00:18:11;101363.66;;;16.84;87.94
49979;BME280;35869;50.990;6.962;2023-05-23T00:23:11;101362.97;;;16.80;87.38
49979;BME280;35869;50.990;6.962;2023-05-23T00:28:11;101369.28;;;16.77;86.75
49979;BME280;35869;50.990;6.962;2023-05-23T00:33:12;101375.97;;;16.67;87.87
49979;BME280;35869;50.990;6.962;2023-05-23T00:38:12;101380.53;;;16.64;87.57
49979;BME280;35869;50.990;6.962;2023-05-23T00:43:12;101384.47;;;16.57;87.53
49979;BME280;35869;50.990;6.962;2023-05-23T00:48:13;101381.25;;;16.51;87.82
49979;BME280;35869;50.990;6.962;2023-05-23T00:53:13;101382.66;;;16.43;88.91
49979;BME280;35869;50.990;6.962;2023-05-23T00:58:13;101383.75;;;16.39;89.54
49979;BME280;35869;50.990;6.962;2023-05-23T01:03:14;101387.41;;;16.36;89.96
49979;BME280;35869;50.990;6.962;2023-05-23T01:08:14;101384.56;;;16.25;90.41
49979;BME280;35869;50.990;6.962;2023-05-23T01:13:21;101394.56;;;16.18;92.27
49979;BME280;35869;50.990;6.962;2023-05-23T01:18:30;101396.75;;;16.10;92.72
49979;BME280;35869;50.990;6.962;2023-05-23T01:29:13;101398.94;;;16.18;93.14
49979;BME280;35869;50.990;6.962;2023-05-23T01:34:15;101395.91;;;16.10;90.77
49979;BME280;35869;50.990;6.962;2023-05-23T01:39:16;101402.44;;;16.18;91.07
49979;BME280;35869;50.990;6.962;2023-05-23T01:44:17;101409.38;;;15.88;91.00
49979;BME280;35869;50.990;6.962;2023-05-23T01:49:18;101416.56;;;16.00;90.81
49979;BME280;35869;50.990;6.962;2023-05-23T01:54:21;101421.25;;;15.95;89.55
49979;BME280;35869;50.990;6.962;2023-05-23T01:59:22;101423.69;;;15.98;90.04
49979;BME280;35869;50.990;6.962;2023-05-23T02:04:22;101429.41;;;16.05;88.91
49979;BME280;35869;50.990;6.962;2023-05-23T02:09:22;101429.94;;;15.95;87.96
49979;BME280;35869;50.990;6.962;2023-05-23T02:14:23;101432.47;;;15.97;87.46
49979;BME280;35869;50.990;6.962;2023-05-23T02:19:23;101428.06;;;15.97;89.00
49979;BME280;35869;50.990;6.962;2023-05-23T02:24:23;101437.88;;;15.94;89.19
49979;BME280;35869;50.990;6.962;2023-05-23T02:29:23;101431.63;;;15.81;88.82
49979;BME280;35869;50.990;6.962;2023-05-23T02:34:24;101430.28;;;15.89;87.93
49979;BME280;35869;50.990;6.962;2023-05-23T02:39:26;101438.22;;;15.88;90.21
49979;BME280;35869;50.990;6.962;2023-05-23T02:44:26;101434.34;;;15.95;87.89
49979;BME280;35869;50.990;6.962;2023-05-23T02:49:26;101450.06;;;15.79;89.19
49979;BME280;35869;50.990;6.962;2023-05-23T02:54:26;101441.09;;;15.83;90.63
49979;BME280;35869;50.990;6.962;2023-05-23T02:59:27;101427.72;;;15.88;89.21
49979;BME280;35869;50.990;6.962;2023-05-23T03:04:27;101437.28;;;15.89;89.75
49979;BME280;35869;50.990;6.962;2023-05-23T03:09:27;101431.47;;;15.84;89.54
49979;BME280;35869;50.990;6.962;2023-05-23T03:14:27;101436.09;;;15.79;89.73
49979;BME280;35869;50.990;6.962;2023-05-23T03:19:27;101436.16;;;15.77;89.44
49979;BME280;35869;50.990;6.962;2023-05-23T03:24:28;101448.19;;;15.81;90.67
49979;BME280;35869;50.990;6.962;2023-05-23T03:29:28;101450.22;;;15.76;91.18
49979;BME280;35869;50.990;6.962;2023-05-23T03:34:28;101461.72;;;15.73;93.47
49979;BME280;35869;50.990;6.962;2023-05-23T03:39:28;101460.97;;;15.71;93.68
49979;BME280;35869;50.990;6.962;2023-05-23T03:44:28;101463.50;;;15.73;92.45
49979;BME280;35869;50.990;6.962;2023-05-23T03:49:29;101456.72;;;15.69;92.44
49979;BME280;35869;50.990;6.962;2023-05-23T03:54:29;101450.09;;;15.62;94.16
49979;BME280;35869;50.990;6.962;2023-05-23T03:59:29;101451.25;;;15.56;93.28
49979;BME280;35869;50.990;6.962;2023-05-23T04:04:29;101462.69;;;15.55;92.68
49979;BME280;35869;50.990;6.962;2023-05-23T04:09:29;101461.91;;;15.53;93.16
49979;BME280;35869;50.990;6.962;2023-05-23T04:14:30;101472.31;;;15.55;92.34
49979;BME280;35869;50.990;6.962;2023-05-23T04:19:30;101475.53;;;15.60;92.81
49979;BME280;35869;50.990;6.962;2023-05-23T04:24:30;101474.75;;;15.58;92.47
49979;BME280;35869;50.990;6.962;2023-05-23T04:29:30;101483.28;;;15.45;93.71
49979;BME280;35869;50.990;6.962;2023-05-23T04:34:31;101497.75;;;15.35;92.83
49979;BME280;35869;50.990;6.962;2023-05-23T04:39:31;101494.75;;;15.43;94.03
49979;BME280;35869;50.990;6.962;2023-05-23T04:44:32;101497.44;;;15.41;94.05
49979;BME280;35869;50.990;6.962;2023-05-23T04:49:32;101496.44;;;15.44;93.44
49979;BME280;35869;50.990;6.962;2023-05-23T04:54:32;101503.56;;;15.42;93.41
49979;BME280;35869;50.990;6.962;2023-05-23T04:59:32;101511.56;;;15.39;95.11
49979;BME280;35869;50.990;6.962;2023-05-23T05:04:32;101515.19;;;15.36;96.55
49979;BME280;35869;50.990;6.962;2023-05-23T05:09:33;101512.81;;;15.32;94.71
49979;BME280;35869;50.990;6.962;2023-05-23T05:14:33;101508.09;;;15.38;95.48
49979;BME280;35869;50.990;6.962;2023-05-23T05:19:33;101518.19;;;15.29;95.61
49979;BME280;35869;50.990;6.962;2023-05-23T05:24:33;101522.44;;;15.31;95.42
49979;BME280;35869;50.990;6.962;2023-05-23T05:29:35;101524.13;;;15.32;95.10
49979;BME280;35869;50.990;6.962;2023-05-23T05:34:35;101529.50;;;15.29;94.69
49979;BME280;35869;50.990;6.962;2023-05-23T05:39:35;101527.91;;;15.27;95.42
49979;BME280;35869;50.990;6.962;2023-05-23T05:44:35;101535.06;;;15.23;95.62
49979;BME280;35869;50.990;6.962;2023-05-23T05:49:35;101537.44;;;15.28;94.03
49979;BME280;35869;50.990;6.962;2023-05-23T05:54:36;101538.47;;;15.25;96.71
49979;BME280;35869;50.990;6.962;2023-05-23T05:59:36;101549.00;;;15.24;96.31
49979;BME280;35869;50.990;6.962;2023-05-23T06:04:36;101553.34;;;15.25;94.27
49979;BME280;35869;50.990;6.962;2023-05-23T06:09:36;101545.94;;;15.15;96.69
49979;BME280;35869;50.990;6.962;2023-05-23T06:14:36;101549.09;;;15.22;95.82
49979;BME280;35869;50.990;6.962;2023-05-23T06:19:37;101559.41;;;15.25;95.46
49979;BME280;35869;50.990;6.962;2023-05-23T06:24:37;101553.94;;;15.30;95.14
49979;BME280;35869;50.990;6.962;2023-05-23T06:29:38;101554.00;;;15.28;95.26
49979;BME280;35869;50.990;6.962;2023-05-23T06:34:38;101559.41;;;15.25;95.76
49979;BME280;35869;50.990;6.962;2023-05-23T06:39:38;101561.09;;;15.26;96.78
49979;BME280;35869;50.990;6.962;2023-05-23T06:44:38;101564.97;;;15.19;95.29
49979;BME280;35869;50.990;6.962;2023-05-23T06:49:38;101579.53;;;15.25;95.67
49979;BME280;35869;50.990;6.962;2023-05-23T06:54:38;101578.38;;;15.30;96.43
49979;BME280;35869;50.990;6.962;2023-05-23T06:59:39;101568.97;;;15.26;95.60
49979;BME280;35869;50.990;6.962;2023-05-23T07:04:39;101586.22;;;15.30;95.72
49979;BME280;35869;50.990;6.962;2023-05-23T07:09:39;101593.00;;;15.34;95.95
49979;BME280;35869;50.990;6.962;2023-05-23T07:14:39;101596.09;;;15.25;95.15
49979;BME280;35869;50.990;6.962;2023-05-23T07:19:39;101607.09;;;15.32;94.53
49979;BME280;35869;50.990;6.962;2023-05-23T07:24:40;101609.03;;;15.45;94.03
49979;BME280;35869;50.990;6.962;2023-05-23T07:29:40;101616.97;;;15.44;93.20
49979;BME280;35869;50.990;6.962;2023-05-23T07:34:40;101626.72;;;15.40;93.23
49979;BME280;35869;50.990;6.962;2023-05-23T07:39:40;101621.34;;;15.43;93.57
49979;BME280;35869;50.990;6.962;2023-05-23T07:44:40;101610.47;;;15.51;91.85
49979;BME280;35869;50.990;6.962;2023-05-23T07:49:41;101614.25;;;15.45;92.79
49979;BME280;35869;50.990;6.962;2023-05-23T07:54:41;101624.06;;;15.42;91.69
49979;BME280;35869;50.990;6.962;2023-05-23T07:59:41;101630.47;;;15.54;91.84
49979;BME280;35869;50.990;6.962;2023-05-23T08:04:41;101629.84;;;15.49;90.87
49979;BME280;35869;50.990;6.962;2023-05-23T08:09:42;101627.53;;;15.60;91.64
49979;BME280;35869;50.990;6.962;2023-05-23T08:14:42;101634.91;;;15.52;91.39
49979;BME280;35869;50.990;6.962;2023-05-23T08:19:42;101638.53;;;15.49;91.30
49979;BME280;35869;50.990;6.962;2023-05-23T08:24:42;101642.25;;;15.62;90.90
49979;BME280;35869;50.990;6.962;2023-05-23T08:29:42;101648.63;;;15.57;92.77
49979;BME280;35869;50.990;6.962;2023-05-23T08:34:43;101659.97;;;15.57;91.52
49979;BME280;35869;50.990;6.962;2023-05-23T08:39:43;101658.00;;;15.62;90.95
49979;BME280;35869;50.990;6.962;2023-05-23T08:44:43;101665.97;;;15.42;90.84
49979;BME280;35869;50.990;6.962;2023-05-23T08:49:43;101664.25;;;15.58;90.21
49979;BME280;35869;50.990;6.962;2023-05-23T08:54:44;101672.44;;;15.52;90.54
49979;BME280;35869;50.990;6.962;2023-05-23T08:59:45;101672.81;;;15.44;91.08
49979;BME280;35869;50.990;6.962;2023-05-23T09:04:46;101691.38;;;15.40;91.99
49979;BME280;35869;50.990;6.962;2023-05-23T09:09:46;101690.41;;;15.42;92.95
49979;BME280;35869;50.990;6.962;2023-05-23T09:14:47;101703.34;;;15.45;92.49
49979;BME280;35869;50.990;6.962;2023-05-23T09:19:47;101706.59;;;15.51;90.27
49979;BME280;35869;50.990;6.962;2023-05-23T09:24:49;101702.50;;;15.45;88.93
49979;BME280;35869;50.990;6.962;2023-05-23T09:29:50;101705.81;;;15.49;90.41
49979;BME280;35869;50.990;6.962;2023-05-23T09:35:05;101717.78;;;15.54;90.07
49979;BME280;35869;50.990;6.962;2023-05-23T09:40:11;101718.63;;;15.55;89.71
49979;BME280;35869;50.990;6.962;2023-05-23T09:45:12;101722.44;;;15.47;90.88
49979;BME280;35869;50.990;6.962;2023-05-23T09:50:13;101737.69;;;15.39;90.73
49979;BME280;35869;50.990;6.962;2023-05-23T09:55:13;101735.66;;;15.27;90.90
49979;BME280;35869;50.990;6.962;2023-05-23T10:00:14;101731.69;;;15.37;89.87
49979;BME280;35869;50.990;6.962;2023-05-23T10:10:31;101737.16;;;15.14;88.66
49979;BME280;35869;50.990;6.962;2023-05-23T10:15:37;101742.59;;;15.28;89.63
49979;BME280;35869;50.990;6.962;2023-05-23T10:20:40;101748.97;;;15.23;88.51
49979;BME280;35869;50.990;6.962;2023-05-23T10:25:43;101742.75;;;15.25;89.39
49979;BME280;35869;50.990;6.962;2023-05-23T10:30:43;101744.44;;;15.26;89.50
49979;BME280;35869;50.990;6.962;2023-05-23T10:36:09;101749.09;;;15.38;89.00
49979;BME280;35869;50.990;6.962;2023-05-23T10:41:23;101752.25;;;15.64;87.70
49979;BME280;35869;50.990;6.962;2023-05-23T10:46:57;101771.31;;;15.85;86.96
49979;BME280;35869;50.990;6.962;2023-05-23T10:51:58;101775.41;;;16.08;83.86
49979;BME280;35869;50.990;6.962;2023-05-23T10:57:01;101780.28;;;15.98;83.30
49979;BME280;35869;50.990;6.962;2023-05-23T11:02:03;101792.06;;;15.89;83.15
49979;BME280;35869;50.990;6.962;2023-05-23T11:07:29;101785.91;;;16.08;82.27
49979;BME280;35869;50.990;6.962;2023-05-23T11:12:43;101794.22;;;15.98;81.89
49979;BME280;35869;50.990;6.962;2023-05-23T11:17:53;101801.97;;;16.02;80.73
49979;BME280;35869;50.990;6.962;2023-05-23T11:22:59;101805.03;;;16.10;80.21
49979;BME280;35869;50.990;6.962;2023-05-23T11:28:03;101811.97;;;16.11;79.63
49979;BME280;35869;50.990;6.962;2023-05-23T11:33:11;101808.91;;;16.20;79.19
49979;BME280;35869;50.990;6.962;2023-05-23T11:38:13;101819.00;;;16.27;76.87
49979;BME280;35869;50.990;6.962;2023-05-23T11:43:15;101812.59;;;16.33;78.51
49979;BME280;35869;50.990;6.962;2023-05-23T11:48:16;101803.44;;;16.24;78.86
49979;BME280;35869;50.990;6.962;2023-05-23T11:53:17;101802.31;;;16.46;74.80
49979;BME280;35869;50.990;6.962;2023-05-23T11:58:20;101798.38;;;16.72;76.53
49979;BME280;35869;50.990;6.962;2023-05-23T12:03:20;101790.28;;;16.92;73.61
49979;BME280;35869;50.990;6.962;2023-05-23T12:08:20;101794.25;;;16.99;75.14
49979;BME280;35869;50.990;6.962;2023-05-23T12:13:23;101787.25;;;17.16;72.92
49979;BME280;35869;50.990;6.962;2023-05-23T12:18:27;101795.88;;;17.02;74.09
49979;BME280;35869;50.990;6.962;2023-05-23T12:23:28;101797.34;;;17.08;74.78
49979;BME280;35869;50.990;6.962;2023-05-23T12:28:42;101802.00;;;17.18;71.40
49979;BME280;35869;50.990;6.962;2023-05-23T12:33:44;101804.69;;;17.01;72.13
49979;BME280;35869;50.990;6.962;2023-05-23T12:38:44;101806.72;;;17.12;70.86
49979;BME280;35869;50.990;6.962;2023-05-23T12:43:49;101806.38;;;17.02;70.59
49979;BME280;35869;50.990;6.962;2023-05-23T12:48:50;101799.88;;;17.25;71.81
49979;BME280;35869;50.990;6.962;2023-05-23T12:53:50;101804.56;;;17.36;67.10
49979;BME280;35869;50.990;6.962;2023-05-23T12:58:51;101800.28;;;17.17;73.30
49979;BME280;35869;50.990;6.962;2023-05-23T13:03:51;101809.88;;;17.02;70.50
49979;BME280;35869;50.990;6.962;2023-05-23T13:08:51;101808.41;;;16.97;69.06
49979;BME280;35869;50.990;6.962;2023-05-23T13:13:51;101813.69;;;17.13;70.88
49979;BME280;35869;50.990;6.962;2023-05-23T13:18:52;101820.78;;;17.11;69.98
49979;BME280;35869;50.990;6.962;2023-05-23T13:23:52;101809.88;;;17.34;63.94
49979;BME280;35869;50.990;6.962;2023-05-23T13:28:52;101817.16;;;17.29;69.98
49979;BME280;35869;50.990;6.962;2023-05-23T13:33:52;101813.75;;;17.58;64.21
49979;BME280;35869;50.990;6.962;2023-05-23T13:38:52;101809.09;;;17.64;66.12
49979;BME280;35869;50.990;6.962;2023-05-23T13:43:53;101810.13;;;17.61;67.45
49979;BME280;35869;50.990;6.962;2023-05-23T13:48:53;101808.84;;;17.68;67.70
49979;BME280;35869;50.990;6.962;2023-05-23T13:53:53;101809.78;;;17.51;65.66
49979;BME280;35869;50.990;6.962;2023-05-23T13:58:53;101812.50;;;17.66;65.72
49979;BME280;35869;50.990;6.962;2023-05-23T14:03:53;101812.91;;;17.58;65.49
49979;BME280;35869;50.990;6.962;2023-05-23T14:08:54;101793.66;;;17.57;62.46
49979;BME280;35869;50.990;6.962;2023-05-23T14:13:54;101789.41;;;17.87;60.04
49979;BME280;35869;50.990;6.962;2023-05-23T14:18:54;101794.00;;;17.83;58.43
49979;BME280;35869;50.990;6.962;2023-05-23T14:23:54;101801.44;;;17.91;59.56
49979;BME280;35869;50.990;6.962;2023-05-23T14:28:55;101798.28;;;18.30;57.84
49979;BME280;35869;50.990;6.962;2023-05-23T14:33:55;101798.56;;;17.95;58.63
49979;BME280;35869;50.990;6.962;2023-05-23T14:38:55;101792.28;;;17.82;61.10
49979;BME280;35869;50.990;6.962;2023-05-23T14:43:56;101793.53;;;18.21;56.62
49979;BME280;35869;50.990;6.962;2023-05-23T14:48:56;101782.53;;;18.14;61.17
49979;BME280;35869;50.990;6.962;2023-05-23T14:53:56;101797.00;;;18.07;60.84
49979;BME280;35869;50.990;6.962;2023-05-23T14:58:56;101787.25;;;17.93;58.75
49979;BME280;35869;50.990;6.962;2023-05-23T15:03:56;101791.66;;;18.23;60.55
49979;BME280;35869;50.990;6.962;2023-05-23T15:08:57;101789.91;;;18.37;55.63
49979;BME280;35869;50.990;6.962;2023-05-23T15:13:57;101787.44;;;18.20;59.59
49979;BME280;35869;50.990;6.962;2023-05-23T15:18:58;101784.66;;;18.37;59.64
49979;BME280;35869;50.990;6.962;2023-05-23T15:23:58;101782.19;;;18.34;59.53
49979;BME280;35869;50.990;6.962;2023-05-23T15:28:58;101781.66;;;18.29;57.42
49979;BME280;35869;50.990;6.962;2023-05-23T15:33:58;101777.03;;;18.33;57.60
49979;BME280;35869;50.990;6.962;2023-05-23T15:38:59;101777.53;;;17.95;56.13
49979;BME280;35869;50.990;6.962;2023-05-23T15:43:59;101774.78;;;17.97;58.57
49979;BME280;35869;50.990;6.962;2023-05-23T15:48:59;101762.94;;;17.90;58.78
49979;BME280;35869;50.990;6.962;2023-05-23T15:53:59;101774.66;;;17.84;58.97
49979;BME280;35869;50.990;6.962;2023-05-23T15:59:00;101768.19;;;17.90;57.24
49979;BME280;35869;50.990;6.962;2023-05-23T16:04:00;101771.78;;;17.89;55.44
49979;BME280;35869;50.990;6.962;2023-05-23T16:09:00;101769.22;;;17.87;59.18
49979;BME280;35869;50.990;6.962;2023-05-23T16:14:00;101766.44;;;17.74;59.50
49979;BME280;35869;50.990;6.962;2023-05-23T16:19:01;101774.06;;;17.79;54.36
49979;BME280;35869;50.990;6.962;2023-05-23T16:24:02;101773.75;;;17.53;53.92
49979;BME280;35869;50.990;6.962;2023-05-23T16:29:03;101773.06;;;17.66;56.21
49979;BME280;35869;50.990;6.962;2023-05-23T16:34:03;101762.81;;;17.61;54.13
49979;BME280;35869;50.990;6.962;2023-05-23T16:39:03;101761.59;;;17.67;57.30
49979;BME280;35869;50.990;6.962;2023-05-23T16:44:03;101761.88;;;17.62;55.46
49979;BME280;35869;50.990;6.962;2023-05-23T16:49:04;101759.72;;;17.69;56.92
49979;BME280;35869;50.990;6.962;2023-05-23T16:54:04;101765.03;;;17.37;57.71
49979;BME280;35869;50.990;6.962;2023-05-23T16:59:04;101758.94;;;17.37;54.00
49979;BME280;35869;50.990;6.962;2023-05-23T17:04:05;101773.53;;;17.26;57.21
49979;BME280;35869;50.990;6.962;2023-05-23T17:09:05;101782.59;;;17.21;56.79
49979;BME280;35869;50.990;6.962;2023-05-23T17:14:05;101784.34;;;17.04;58.36
49979;BME280;35869;50.990;6.962;2023-05-23T17:19:05;101780.78;;;16.90;57.59
49979;BME280;35869;50.990;6.962;2023-05-23T17:24:06;101790.44;;;16.89;59.10
49979;BME280;35869;50.990;6.962;2023-05-23T17:29:06;101793.06;;;16.89;58.71
49979;BME280;35869;50.990;6.962;2023-05-23T17:34:06;101795.09;;;16.67;57.81
49979;BME280;35869;50.990;6.962;2023-05-23T17:39:06;101805.63;;;16.49;59.79
49979;BME280;35869;50.990;6.962;2023-05-23T17:44:07;101806.16;;;16.56;58.63
49979;BME280;35869;50.990;6.962;2023-05-23T17:49:07;101805.53;;;16.51;58.92
49979;BME280;35869;50.990;6.962;2023-05-23T17:54:07;101805.09;;;16.60;60.05
49979;BME280;35869;50.990;6.962;2023-05-23T17:59:08;101807.66;;;16.44;57.17
49979;BME280;35869;50.990;6.962;2023-05-23T18:04:08;101818.91;;;16.46;58.43
49979;BME280;35869;50.990;6.962;2023-05-23T18:09:08;101812.44;;;16.36;59.82
49979;BME280;35869;50.990;6.962;2023-05-23T18:14:08;101808.81;;;16.21;56.51
49979;BME280;35869;50.990;6.962;2023-05-23T18:19:09;101816.75;;;16.03;59.21
49979;BME280;35869;50.990;6.962;2023-05-23T18:24:09;101827.78;;;16.09;58.22
49979;BME280;35869;50.990;6.962;2023-05-23T18:29:09;101820.41;;;15.81;57.42
49979;BME280;35869;50.990;6.962;2023-05-23T18:34:09;101828.78;;;15.89;57.93
49979;BME280;35869;50.990;6.962;2023-05-23T18:39:10;101833.53;;;15.81;59.78
49979;BME280;35869;50.990;6.962;2023-05-23T18:44:10;101832.59;;;15.82;61.56
49979;BME280;35869;50.990;6.962;2023-05-23T18:49:10;101839.22;;;15.72;60.12
49979;BME280;35869;50.990;6.962;2023-05-23T18:54:11;101836.03;;;15.46;59.59
49979;BME280;35869;50.990;6.962;2023-05-23T18:59:11;101837.72;;;15.29;58.48
49979;BME280;35869;50.990;6.962;2023-05-23T19:04:11;101856.63;;;15.35;59.07
49979;BME280;35869;50.990;6.962;2023-05-23T19:09:11;101864.06;;;15.26;59.59
49979;BME280;35869;50.990;6.962;2023-05-23T19:14:11;101868.03;;;15.15;61.72
49979;BME280;35869;50.990;6.962;2023-05-23T19:19:12;101876.78;;;14.96;59.72
49979;BME280;35869;50.990;6.962;2023-05-23T19:24:12;101891.19;;;14.85;59.76
49979;BME280;35869;50.990;6.962;2023-05-23T19:29:12;101896.53;;;14.82;58.82
49979;BME280;35869;50.990;6.962;2023-05-23T19:34:12;101901.91;;;14.79;60.18
49979;BME280;35869;50.990;6.962;2023-05-23T19:39:13;101902.69;;;14.81;60.26
49979;BME280;35869;50.990;6.962;2023-05-23T19:44:13;101897.31;;;14.64;61.23
49979;BME280;35869;50.990;6.962;2023-05-23T19:49:13;101901.97;;;14.57;60.90
49979;BME280;35869;50.990;6.962;2023-05-23T19:54:13;101907.88;;;14.40;60.06
49979;BME280;35869;50.990;6.962;2023-05-23T19:59:14;101910.22;;;14.48;60.13
49979;BME280;35869;50.990;6.962;2023-05-23T20:04:14;101910.38;;;14.44;60.64
49979;BME280;35869;50.990;6.962;2023-05-23T20:09:14;101928.81;;;14.19;61.29
49979;BME280;35869;50.990;6.962;2023-05-23T20:14:14;101924.13;;;14.27;62.74
49979;BME280;35869;50.990;6.962;2023-05-23T20:19:14;101935.16;;;14.13;61.83
49979;BME280;35869;50.990;6.962;2023-05-23T20:24:15;101938.78;;;14.09;63.27
49979;BME280;35869;50.990;6.962;2023-05-23T20:29:15;101954.16;;;13.95;62.84
49979;BME280;35869;50.990;6.962;2023-05-23T20:34:15;101953.84;;;13.80;62.44
49979;BME280;35869;50.990;6.962;2023-05-23T20:39:15;101962.66;;;13.78;63.39
49979;BME280;35869;50.990;6.962;2023-05-23T20:44:15;101974.28;;;13.69;63.66
49979;BME280;35869;50.990;6.962;2023-05-23T20:49:16;101977.06;;;13.65;63.83
49979;BME280;35869;50.990;6.962;2023-05-23T20:54:16;101981.56;;;13.61;64.00
49979;BME280;35869;50.990;6.962;2023-05-23T20:59:16;101974.59;;;13.37;63.24
49979;BME280;35869;50.990;6.962;2023-05-23T21:04:16;101986.25;;;13.28;64.47
49979;BME280;35869;50.990;6.962;2023-05-23T21:09:17;101980.91;;;13.31;63.32
49979;BME280;35869;50.990;6.962;2023-05-23T21:14:17;101993.63;;;13.15;65.12
49979;BME280;35869;50.990;6.962;2023-05-23T21:19:17;101999.13;;;13.06;65.57
49979;BME280;35869;50.990;6.962;2023-05-23T21:24:17;101993.19;;;13.02;64.50
49979;BME280;35869;50.990;6.962;2023-05-23T21:29:18;101994.91;;;13.03;64.26
49979;BME280;35869;50.990;6.962;2023-05-23T21:34:18;101996.38;;;12.86;64.86
49979;BME280;35869;50.990;6.962;2023-05-23T21:39:18;101995.88;;;12.74;65.17
49979;BME280;35869;50.990;6.962;2023-05-23T21:44:19;102004.41;;;12.79;64.50
49979;BME280;35869;50.990;6.962;2023-05-23T21:49:19;102011.47;;;12.48;65.04
49979;BME280;35869;50.990;6.962;2023-05-23T21:54:19;102011.22;;;12.57;65.43
49979;BME280;35869;50.990;6.962;2023-05-23T21:59:19;102007.50;;;12.64;65.82
49979;BME280;35869;50.990;6.962;2023-05-23T22:04:20;102013.50;;;12.40;65.84
49979;BME280;35869;50.990;6.962;2023-05-23T22:09:20;102014.44;;;12.37;66.36
49979;BME280;35869;50.990;6.962;2023-05-23T22:14:20;102006.06;;;12.27;66.20
49979;BME280;35869;50.990;6.962;2023-05-23T22:19:20;102012.63;;;12.11;66.33
49979;BME280;35869;50.990;6.962;2023-05-23T22:24:20;102000.19;;;12.19;65.94
49979;BME280;35869;50.990;6.962;2023-05-23T22:29:21;101998.78;;;12.09;66.34
49979;BME280;35869;50.990;6.962;2023-05-23T22:34:21;102004.19;;;12.03;66.22
49979;BME280;35869;50.990;6.962;2023-05-23T22:39:21;102001.72;;;11.98;67.03
49979;BME280;35869;50.990;6.962;2023-05-23T22:44:21;102005.59;;;11.84;66.75
49979;BME280;35869;50.990;6.962;2023-05-23T22:49:22;102012.56;;;11.85;68.07
49979;BME280;35869;50.990;6.962;2023-05-23T22:54:22;102018.72;;;11.81;68.50
49979;BME280;35869;50.990;6.962;2023-05-23T22:59:22;102008.41;;;11.76;69.08
49979;BME280;35869;50.990;6.962;2023-05-23T23:04:22;102006.84;;;11.70;69.04
49979;BME280;35869;50.990;6.962;2023-05-23T23:09:22;102010.34;;;11.69;68.82
49979;BME280;35869;50.990;6.962;2023-05-23T23:14:23;102013.06;;;11.65;68.24
49979;BME280;35869;50.990;6.962;2023-05-23T23:19:23;102005.59;;;11.53;68.48
49979;BME280;35869;50.990;6.962;2023-05-23T23:24:23;102019.00;;;11.39;69.80
49979;BME280;35869;50.990;6.962;2023-05-23T23:29:23;102020.13;;;11.29;69.97
49979;BME280;35869;50.990;6.962;2023-05-23T23:34:24;102026.34;;;11.23;70.88
49979;BME280;35869;50.990;6.962;2023-05-23T23:39:24;102020.28;;;11.23;70.05
49979;BME280;35869;50.990;6.962;2023-05-23T23:44:25;102017.06;;;11.14;70.32
49979;BME280;35869;50.990;6.962;2023-05-23T23:49:25;102020.84;;;11.01;70.13
49979;BME280;35869;50.990;6.962;2023-05-23T23:54:25;102030.94;;;11.13;71.23
49979;BME280;35869;50.990;6.962;2023-05-23T23:59:25;102023.59;;;10.95;71.20
